Time;durP1;ratioP1;P1;durP2;ratioP2;P2;SDS_P1;SDS_P2;PMS_P1;PMS_P2;Temp;Humidity;BMP_temperature;BMP_pressure;BME280_temperature;BME280_humidity;BME280_pressure;Samples;Min_cycle;Max_cycle;Signal;HPM_P1;HPM_P2
2021/10/24 00:02:11;;;;;;;15.57;9.82;;;;;;;;;;5077189;28;20486;-81
2021/10/24 00:04:36;;;;;;;14.10;9.38;;;;;;;;;;5087271;28;20120;-80
2021/10/24 00:07:02;;;;;;;14.65;9.68;;;;;;;;;;5071162;28;20123;-82
2021/10/24 00:09:27;;;;;;;16.33;10.02;;;;;;;;;;5059638;28;20028;-81
2021/10/24 00:11:53;;;;;;;17.60;9.50;;;;;;;;;;5077353;28;20098;-82
2021/10/24 00:14:18;;;;;;;14.98;9.30;;;;;;;;;;5089707;28;20032;-82
2021/10/24 00:16:44;;;;;;;16.02;9.35;;;;;;;;;;5069092;28;20044;-81
2021/10/24 00:19:09;;;;;;;12.75;8.85;;;;;;;;;;5081681;28;20024;-80
2021/10/24 00:21:35;;;;;;;13.63;8.75;;;;;;;;;;5050379;28;20021;-80
2021/10/24 00:24:00;;;;;;;16.05;10.45;;;;;;;;;;5096716;28;20031;-82
2021/10/24 00:26:26;;;;;;;14.65;9.75;;;;;;;;;;5074941;28;20512;-81
2021/10/24 00:28:51;;;;;;;14.38;9.48;;;;;;;;;;5095882;28;20038;-82
2021/10/24 00:31:17;;;;;;;13.80;9.48;;;;;;;;;;5097721;28;20499;-82
2021/10/24 00:33:42;;;;;;;17.35;9.75;;;;;;;;;;5086539;28;20024;-82
2021/10/24 00:36:09;;;;;;;15.07;9.13;;;;;;;;;;5078137;28;20520;-82
2021/10/24 00:38:35;;;;;;;17.02;9.57;;;;;;;;;;5074039;28;20040;-82
2021/10/24 00:41:00;;;;;;;13.15;9.10;;;;;;;;;;5092248;28;20028;-80
2021/10/24 00:43:26;;;;;;;19.08;9.82;;;;;;;;;;5059704;28;20042;-81
2021/10/24 00:45:51;;;;;;;12.55;9.80;;;;;;;;;;5087247;28;20038;-81
2021/10/24 00:48:16;;;;;;;14.85;9.45;;;;;;;;;;5071362;28;20040;-82
2021/10/24 00:50:42;;;;;;;16.67;9.57;;;;;;;;;;5089075;28;20036;-82
2021/10/24 00:53:10;;;;;;;14.60;9.32;;;;;;;;;;5071832;28;20023;-80
2021/10/24 00:55:36;;;;;;;14.40;9.15;;;;;;;;;;5072072;28;20032;-80
2021/10/24 00:58:04;;;;;;;15.73;9.38;;;;;;;;;;5096534;28;20023;-80
2021/10/24 01:00:30;;;;;;;18.02;9.43;;;;;;;;;;5095838;28;20076;-81
2021/10/24 01:02:55;;;;;;;14.50;9.50;;;;;;;;;;5087344;28;20475;-82
2021/10/24 01:05:21;;;;;;;15.63;9.32;;;;;;;;;;5088027;28;20024;-81
2021/10/24 01:07:49;;;;;;;13.82;9.27;;;;;;;;;;5077844;28;20081;-81
2021/10/24 01:10:16;;;;;;;13.60;9.90;;;;;;;;;;5078876;28;20031;-81
2021/10/24 01:12:49;;;;;;;15.05;9.20;;;;;;;;;;5090967;28;20127;-82
2021/10/24 01:15:16;;;;;;;15.20;9.05;;;;;;;;;;5090362;28;20033;-82
2021/10/24 01:17:41;;;;;;;17.75;9.48;;;;;;;;;;5088972;28;20491;-80
2021/10/24 01:20:08;;;;;;;15.80;9.55;;;;;;;;;;5088531;28;20058;-80
2021/10/24 01:22:38;;;;;;;13.25;9.32;;;;;;;;;;5082266;28;20092;-82
2021/10/24 01:25:08;;;;;;;13.07;9.25;;;;;;;;;;5088815;28;20028;-81
2021/10/24 01:27:36;;;;;;;13.98;9.93;;;;;;;;;;5071442;28;20032;-82
2021/10/24 01:30:06;;;;;;;15.85;10.23;;;;;;;;;;5072630;28;20052;-80
2021/10/24 01:32:32;;;;;;;16.63;10.20;;;;;;;;;;5080463;28;20085;-80
2021/10/24 01:34:59;;;;;;;13.40;9.48;;;;;;;;;;5089945;28;20477;-82
2021/10/24 01:37:36;;;;;;;14.25;9.45;;;;;;;;;;5056143;28;20052;-81
2021/10/24 01:40:05;;;;;;;13.52;9.45;;;;;;;;;;5089478;28;20056;-80
2021/10/24 01:42:32;;;;;;;14.65;9.07;;;;;;;;;;5082246;28;20032;-80
2021/10/24 01:44:57;;;;;;;15.40;10.10;;;;;;;;;;5083847;28;20153;-82
2021/10/24 01:47:22;;;;;;;13.13;9.25;;;;;;;;;;5085210;28;20164;-82
2021/10/24 01:49:48;;;;;;;15.18;9.75;;;;;;;;;;5080551;28;20056;-82
2021/10/24 01:52:15;;;;;;;12.25;9.07;;;;;;;;;;5077751;28;20024;-82
2021/10/24 01:54:41;;;;;;;16.35;9.52;;;;;;;;;;5084844;28;20032;-81
2021/10/24 01:57:07;;;;;;;13.57;9.02;;;;;;;;;;5080002;28;20170;-81
2021/10/24 01:59:32;;;;;;;15.45;10.00;;;;;;;;;;5086208;28;20045;-82
2021/10/24 02:01:57;;;;;;;14.27;9.57;;;;;;;;;;5070207;28;20050;-80
2021/10/24 02:04:23;;;;;;;13.13;9.68;;;;;;;;;;5069431;28;20028;-82
2021/10/24 02:06:48;;;;;;;16.15;9.88;;;;;;;;;;5081810;28;20035;-82
2021/10/24 02:09:14;;;;;;;13.20;9.73;;;;;;;;;;5070574;28;20052;-82
2021/10/24 02:11:39;;;;;;;14.38;9.35;;;;;;;;;;5085371;28;20055;-81
2021/10/24 02:14:05;;;;;;;16.63;9.27;;;;;;;;;;5067210;28;20490;-82
2021/10/24 02:16:30;;;;;;;14.93;9.70;;;;;;;;;;5063942;28;20162;-81
2021/10/24 02:18:56;;;;;;;16.45;10.13;;;;;;;;;;5066508;28;20036;-82
2021/10/24 02:21:21;;;;;;;15.07;9.93;;;;;;;;;;5087984;28;20028;-82
2021/10/24 02:23:46;;;;;;;14.57;9.57;;;;;;;;;;5069004;28;20044;-82
2021/10/24 02:26:13;;;;;;;14.38;9.18;;;;;;;;;;5060054;28;20064;-81
2021/10/24 02:28:39;;;;;;;13.10;9.43;;;;;;;;;;5092914;28;20036;-82
2021/10/24 02:31:04;;;;;;;12.00;9.18;;;;;;;;;;5070950;28;21361;-82
2021/10/24 02:33:29;;;;;;;13.35;9.55;;;;;;;;;;5087578;28;20480;-80
2021/10/24 02:35:55;;;;;;;16.48;10.40;;;;;;;;;;5078056;28;20057;-81
2021/10/24 02:38:20;;;;;;;15.48;10.10;;;;;;;;;;5076952;28;20090;-82
2021/10/24 02:40:46;;;;;;;14.75;9.52;;;;;;;;;;5067955;28;20039;-81
2021/10/24 02:43:11;;;;;;;15.48;10.15;;;;;;;;;;5070257;28;20035;-81
2021/10/24 02:45:37;;;;;;;14.55;9.80;;;;;;;;;;5081363;28;20606;-80
2021/10/24 02:48:06;;;;;;;16.25;9.73;;;;;;;;;;5078431;28;20098;-82
2021/10/24 02:50:32;;;;;;;13.85;10.30;;;;;;;;;;5089554;28;20093;-82
2021/10/24 02:52:57;;;;;;;16.73;10.95;;;;;;;;;;5092712;28;20028;-81
2021/10/24 02:55:22;;;;;;;15.07;9.77;;;;;;;;;;5066681;28;20039;-82
2021/10/24 02:57:48;;;;;;;15.45;10.50;;;;;;;;;;5079139;28;20388;-81
2021/10/24 03:00:14;;;;;;;14.32;9.95;;;;;;;;;;5088155;28;20024;-81
2021/10/24 03:02:40;;;;;;;12.93;9.13;;;;;;;;;;5088780;28;20050;-81
2021/10/24 03:05:08;;;;;;;14.15;9.77;;;;;;;;;;5093131;28;21928;-82
2021/10/24 03:07:34;;;;;;;15.27;9.75;;;;;;;;;;5091076;28;20082;-81
2021/10/24 03:10:00;;;;;;;13.90;9.40;;;;;;;;;;5080017;28;20494;-82
2021/10/24 03:12:25;;;;;;;13.50;10.25;;;;;;;;;;5072062;28;20037;-82
2021/10/24 03:14:51;;;;;;;15.20;9.80;;;;;;;;;;5061558;28;20488;-82
2021/10/24 03:17:16;;;;;;;14.13;9.13;;;;;;;;;;5070225;28;20147;-80
2021/10/24 03:19:42;;;;;;;14.57;9.32;;;;;;;;;;5067564;28;20036;-82
2021/10/24 03:22:08;;;;;;;16.02;9.52;;;;;;;;;;5084845;28;20085;-80
2021/10/24 03:24:34;;;;;;;13.40;9.30;;;;;;;;;;5077580;28;20032;-82
2021/10/24 03:27:00;;;;;;;12.80;9.43;;;;;;;;;;5074017;28;20034;-80
2021/10/24 03:29:25;;;;;;;13.48;9.35;;;;;;;;;;5085387;28;20032;-80
2021/10/24 03:31:51;;;;;;;11.85;8.68;;;;;;;;;;5084723;28;20111;-81
2021/10/24 03:34:18;;;;;;;13.77;8.77;;;;;;;;;;5086925;28;20482;-82
2021/10/24 03:36:44;;;;;;;13.70;9.23;;;;;;;;;;5072430;28;20089;-82
2021/10/24 03:39:10;;;;;;;13.43;9.43;;;;;;;;;;5089706;28;20440;-82
2021/10/24 03:41:35;;;;;;;14.48;9.27;;;;;;;;;;5067706;28;20024;-80
2021/10/24 03:44:01;;;;;;;16.60;9.73;;;;;;;;;;5089250;28;20502;-82
2021/10/24 03:46:26;;;;;;;12.02;9.27;;;;;;;;;;5070377;28;20047;-81
2021/10/24 03:48:51;;;;;;;12.57;8.68;;;;;;;;;;5090174;28;20067;-82
2021/10/24 03:51:17;;;;;;;13.73;8.80;;;;;;;;;;5088397;28;20060;-82
2021/10/24 03:53:42;;;;;;;14.35;8.65;;;;;;;;;;5093610;28;20036;-80
2021/10/24 03:56:08;;;;;;;14.32;9.35;;;;;;;;;;5072300;28;20062;-82
2021/10/24 03:58:33;;;;;;;14.95;9.13;;;;;;;;;;5089903;28;20506;-80
2021/10/24 04:00:59;;;;;;;12.70;8.98;;;;;;;;;;5071354;28;20028;-82
2021/10/24 04:03:24;;;;;;;14.60;9.27;;;;;;;;;;5080386;28;20046;-81
2021/10/24 04:05:50;;;;;;;14.63;10.10;;;;;;;;;;5073839;28;20028;-82
2021/10/24 04:08:16;;;;;;;15.00;8.70;;;;;;;;;;5074583;28;20089;-81
2021/10/24 04:10:42;;;;;;;12.30;8.93;;;;;;;;;;5088899;28;20055;-82
2021/10/24 04:13:08;;;;;;;14.75;8.98;;;;;;;;;;5088383;28;20032;-82
2021/10/24 04:15:34;;;;;;;12.63;8.95;;;;;;;;;;5091312;28;20031;-82
2021/10/24 04:17:59;;;;;;;13.25;8.55;;;;;;;;;;5052198;28;20028;-82
2021/10/24 04:20:24;;;;;;;13.43;8.80;;;;;;;;;;5088250;28;20035;-80
2021/10/24 04:22:51;;;;;;;14.85;9.20;;;;;;;;;;5083637;28;20514;-83
2021/10/24 04:25:17;;;;;;;13.45;8.65;;;;;;;;;;5067419;28;20132;-81
2021/10/24 04:27:43;;;;;;;13.07;8.70;;;;;;;;;;5067993;28;20037;-80
2021/10/24 04:30:10;;;;;;;13.45;7.93;;;;;;;;;;5083821;28;20036;-82
2021/10/24 04:32:37;;;;;;;12.68;8.45;;;;;;;;;;5088142;28;20020;-82
2021/10/24 04:35:03;;;;;;;13.15;8.57;;;;;;;;;;5083802;28;20391;-80
2021/10/24 04:37:29;;;;;;;13.00;8.50;;;;;;;;;;5086517;28;20044;-82
2021/10/24 04:39:54;;;;;;;13.02;8.38;;;;;;;;;;5090120;28;20036;-80
2021/10/24 04:42:20;;;;;;;10.63;7.82;;;;;;;;;;5073041;28;20035;-82
2021/10/24 04:44:45;;;;;;;13.68;7.93;;;;;;;;;;5082875;28;20035;-82
2021/10/24 04:47:11;;;;;;;13.15;8.65;;;;;;;;;;5082812;28;20047;-81
2021/10/24 04:49:36;;;;;;;13.57;8.32;;;;;;;;;;5100059;28;20403;-80
2021/10/24 04:52:02;;;;;;;12.30;8.20;;;;;;;;;;5079953;28;20043;-82
2021/10/24 04:54:27;;;;;;;15.02;8.40;;;;;;;;;;5070882;28;20031;-80
2021/10/24 04:56:53;;;;;;;12.00;8.05;;;;;;;;;;5079056;28;20042;-82
2021/10/24 04:59:20;;;;;;;12.18;7.93;;;;;;;;;;5075202;28;20039;-82
2021/10/24 05:01:47;;;;;;;10.35;7.28;;;;;;;;;;5074301;28;20035;-82
2021/10/24 05:04:12;;;;;;;12.48;7.63;;;;;;;;;;5092326;28;20039;-82
2021/10/24 05:06:38;;;;;;;14.80;8.05;;;;;;;;;;5088977;28;20016;-80
2021/10/24 05:09:04;;;;;;;12.13;8.57;;;;;;;;;;5067024;28;20129;-82
2021/10/24 05:11:30;;;;;;;13.35;8.02;;;;;;;;;;5084617;28;20138;-82
2021/10/24 05:13:55;;;;;;;15.27;7.88;;;;;;;;;;5085259;28;20051;-82
2021/10/24 05:16:21;;;;;;;10.68;7.53;;;;;;;;;;5092035;28;20443;-82
2021/10/24 05:18:46;;;;;;;11.35;8.13;;;;;;;;;;5075757;28;20036;-81
2021/10/24 05:21:13;;;;;;;10.85;7.72;;;;;;;;;;5077876;28;20046;-80
2021/10/24 05:23:38;;;;;;;12.88;7.82;;;;;;;;;;5083000;28;20028;-81
2021/10/24 05:26:04;;;;;;;15.45;8.00;;;;;;;;;;5075979;28;21152;-82
2021/10/24 05:28:30;;;;;;;11.50;7.78;;;;;;;;;;5071921;28;20054;-81
2021/10/24 05:30:56;;;;;;;12.15;7.47;;;;;;;;;;5072636;28;20028;-80
2021/10/24 05:33:21;;;;;;;13.10;8.07;;;;;;;;;;5071587;28;20453;-82
2021/10/24 05:35:47;;;;;;;13.07;8.13;;;;;;;;;;5077651;28;20028;-81
2021/10/24 05:38:12;;;;;;;11.98;7.88;;;;;;;;;;5084390;28;20139;-83
2021/10/24 05:40:38;;;;;;;11.20;7.90;;;;;;;;;;5081525;28;20032;-81
2021/10/24 05:43:03;;;;;;;12.50;8.02;;;;;;;;;;5063070;28;20043;-82
2021/10/24 05:45:29;;;;;;;11.57;8.13;;;;;;;;;;5082356;28;20513;-81
2021/10/24 05:47:55;;;;;;;17.25;8.15;;;;;;;;;;5096034;28;20119;-82
2021/10/24 05:50:20;;;;;;;12.95;7.72;;;;;;;;;;5089103;28;20400;-82
2021/10/24 05:52:46;;;;;;;12.48;8.15;;;;;;;;;;5087266;28;20365;-82
2021/10/24 05:55:11;;;;;;;11.50;7.75;;;;;;;;;;5084714;28;20035;-81
2021/10/24 05:57:37;;;;;;;12.48;7.80;;;;;;;;;;5076221;28;20036;-81
2021/10/24 06:00:04;;;;;;;13.43;7.60;;;;;;;;;;5089760;28;20031;-82
2021/10/24 06:02:29;;;;;;;12.73;7.90;;;;;;;;;;5092552;28;20490;-83
2021/10/24 06:04:57;;;;;;;15.27;8.25;;;;;;;;;;5085173;28;20060;-82
2021/10/24 06:07:24;;;;;;;11.93;7.75;;;;;;;;;;5075355;28;20040;-81
2021/10/24 06:15:08;;;;;;;11.68;7.43;;;;;;;;;;5079713;28;20042;-80
2021/10/24 06:17:34;;;;;;;12.60;7.45;;;;;;;;;;5090079;28;20044;-83
2021/10/24 06:20:00;;;;;;;13.00;7.30;;;;;;;;;;5085917;28;20039;-82
2021/10/24 06:22:26;;;;;;;12.68;7.45;;;;;;;;;;5091096;28;20035;-81
2021/10/24 06:24:53;;;;;;;12.52;8.00;;;;;;;;;;5074887;28;21771;-82
2021/10/24 06:27:19;;;;;;;13.32;7.40;;;;;;;;;;5047392;28;20020;-82
2021/10/24 06:29:44;;;;;;;12.13;7.43;;;;;;;;;;5078528;28;20118;-82
2021/10/24 06:32:10;;;;;;;10.10;7.07;;;;;;;;;;5076846;28;20455;-82
2021/10/24 06:34:35;;;;;;;10.88;6.82;;;;;;;;;;5087193;28;20059;-80
2021/10/24 06:37:01;;;;;;;10.15;6.75;;;;;;;;;;5092321;28;20066;-82
2021/10/24 06:39:26;;;;;;;12.55;7.07;;;;;;;;;;5065530;28;20070;-80
2021/10/24 06:41:52;;;;;;;12.27;7.03;;;;;;;;;;5062466;28;20515;-80
2021/10/24 06:44:17;;;;;;;11.05;6.60;;;;;;;;;;5063897;28;20135;-82
2021/10/24 06:46:43;;;;;;;12.82;7.20;;;;;;;;;;5072085;28;20029;-82
2021/10/24 06:49:08;;;;;;;13.18;7.38;;;;;;;;;;5094177;28;20205;-82
2021/10/24 06:51:34;;;;;;;11.93;7.00;;;;;;;;;;5086098;28;20041;-82
2021/10/24 06:53:59;;;;;;;11.88;6.70;;;;;;;;;;5068581;28;20044;-82
2021/10/24 06:56:25;;;;;;;11.60;6.72;;;;;;;;;;5088094;28;20071;-81
2021/10/24 06:58:50;;;;;;;10.85;7.00;;;;;;;;;;5072384;28;20028;-80
2021/10/24 07:01:16;;;;;;;12.70;7.03;;;;;;;;;;5095171;28;20061;-82
2021/10/24 07:03:41;;;;;;;10.70;6.88;;;;;;;;;;5085444;28;20394;-80
2021/10/24 07:06:07;;;;;;;10.13;6.60;;;;;;;;;;5062158;28;20062;-81
2021/10/24 07:08:32;;;;;;;13.43;7.30;;;;;;;;;;5078827;28;20032;-82
2021/10/24 07:10:58;;;;;;;14.38;6.32;;;;;;;;;;5081154;28;20055;-82
2021/10/24 07:13:23;;;;;;;10.38;6.10;;;;;;;;;;5080885;28;20036;-82
2021/10/24 07:15:49;;;;;;;10.63;6.35;;;;;;;;;;5069725;28;20515;-81
2021/10/24 07:18:14;;;;;;;11.07;6.72;;;;;;;;;;5077307;28;20190;-85
2021/10/24 07:20:40;;;;;;;11.50;7.03;;;;;;;;;;5089610;28;20020;-82
2021/10/24 07:23:05;;;;;;;12.10;6.65;;;;;;;;;;5075851;28;20394;-82
2021/10/24 07:25:31;;;;;;;11.90;6.68;;;;;;;;;;5082289;28;20042;-80
2021/10/24 07:27:56;;;;;;;12.23;6.63;;;;;;;;;;5068167;28;20020;-83
2021/10/24 07:30:22;;;;;;;9.20;6.30;;;;;;;;;;5071348;28;20031;-83
2021/10/24 07:32:48;;;;;;;15.10;6.93;;;;;;;;;;5075078;28;20028;-82
2021/10/24 07:35:14;;;;;;;9.27;6.38;;;;;;;;;;5071947;28;20036;-82
2021/10/24 07:37:40;;;;;;;10.68;6.47;;;;;;;;;;5071398;28;20050;-83
2021/10/24 07:40:08;;;;;;;18.40;6.53;;;;;;;;;;5085812;28;20419;-82
2021/10/24 07:42:34;;;;;;;11.95;6.55;;;;;;;;;;5082895;28;20031;-83
2021/10/24 07:44:59;;;;;;;14.60;6.38;;;;;;;;;;5085714;28;20028;-81
2021/10/24 07:47:30;;;;;;;15.23;6.45;;;;;;;;;;5084148;28;20046;-82
2021/10/24 07:49:56;;;;;;;8.68;5.82;;;;;;;;;;5066417;28;20036;-83
2021/10/24 07:52:22;;;;;;;9.75;6.38;;;;;;;;;;5083713;28;20033;-82
2021/10/24 07:54:48;;;;;;;12.10;6.82;;;;;;;;;;5074683;28;20035;-82
2021/10/24 07:57:13;;;;;;;13.23;7.53;;;;;;;;;;5061484;28;20020;-82
2021/10/24 07:59:38;;;;;;;12.55;6.85;;;;;;;;;;5069832;28;20019;-80
2021/10/24 08:02:04;;;;;;;10.55;6.88;;;;;;;;;;5085490;28;20036;-82
2021/10/24 08:04:33;;;;;;;10.00;6.70;;;;;;;;;;5104031;28;20027;-82
2021/10/24 08:06:59;;;;;;;13.13;7.00;;;;;;;;;;5082715;28;20387;-80
2021/10/24 08:09:24;;;;;;;11.35;6.60;;;;;;;;;;5083174;28;20038;-81
2021/10/24 08:11:50;;;;;;;10.32;6.78;;;;;;;;;;5070763;28;20052;-80
2021/10/24 08:14:16;;;;;;;11.68;6.68;;;;;;;;;;5086648;28;20039;-80
2021/10/24 08:16:42;;;;;;;10.73;6.95;;;;;;;;;;5085703;28;20023;-81
2021/10/24 08:19:07;;;;;;;11.27;6.95;;;;;;;;;;5098629;28;20052;-82
2021/10/24 08:21:34;;;;;;;10.65;6.93;;;;;;;;;;5103115;28;20027;-82
2021/10/24 08:24:00;;;;;;;12.10;7.05;;;;;;;;;;5088531;28;20443;-83
2021/10/24 08:26:26;;;;;;;9.73;6.38;;;;;;;;;;5083664;28;20019;-80
2021/10/24 08:28:52;;;;;;;12.25;7.00;;;;;;;;;;5101776;28;20431;-82
2021/10/24 08:31:24;;;;;;;10.52;6.85;;;;;;;;;;5083248;28;20067;-82
2021/10/24 08:33:51;;;;;;;10.82;6.47;;;;;;;;;;5098300;28;20031;-82
2021/10/24 08:36:17;;;;;;;11.85;6.82;;;;;;;;;;5104591;28;20024;-82
2021/10/24 08:38:43;;;;;;;10.45;7.05;;;;;;;;;;5083368;28;20197;-82
2021/10/24 08:41:09;;;;;;;12.70;7.60;;;;;;;;;;5070924;28;20498;-80
2021/10/24 08:43:36;;;;;;;12.55;7.22;;;;;;;;;;5085124;28;20036;-81
2021/10/24 08:46:04;;;;;;;12.25;6.80;;;;;;;;;;5074776;28;20031;-81
2021/10/24 08:48:33;;;;;;;10.50;7.18;;;;;;;;;;5099286;28;20039;-80
2021/10/24 08:50:59;;;;;;;13.13;7.55;;;;;;;;;;5088494;28;20034;-82
2021/10/24 08:53:26;;;;;;;13.00;6.82;;;;;;;;;;5081389;28;20024;-82
2021/10/24 08:55:54;;;;;;;13.57;7.47;;;;;;;;;;5096010;28;20028;-80
2021/10/24 08:58:19;;;;;;;13.25;7.28;;;;;;;;;;5088751;28;20028;-80
2021/10/24 09:00:45;;;;;;;11.48;7.20;;;;;;;;;;5076658;28;20024;-82
2021/10/24 09:03:11;;;;;;;12.02;7.90;;;;;;;;;;5079028;28;20027;-82
2021/10/24 09:05:42;;;;;;;11.90;7.60;;;;;;;;;;5099795;28;20040;-82
2021/10/24 09:08:09;;;;;;;13.63;7.57;;;;;;;;;;5095451;28;20025;-82
2021/10/24 09:10:49;;;;;;;13.43;7.05;;;;;;;;;;5099226;28;20044;-83
2021/10/24 09:13:16;;;;;;;11.90;7.45;;;;;;;;;;5099835;28;20024;-82
2021/10/24 09:15:49;;;;;;;14.13;7.40;;;;;;;;;;5098194;28;20034;-80
2021/10/24 09:18:17;;;;;;;11.35;7.18;;;;;;;;;;5099598;28;20027;-81
2021/10/24 09:20:43;;;;;;;14.98;7.65;;;;;;;;;;5096424;28;20468;-82
2021/10/24 09:23:11;;;;;;;12.90;7.45;;;;;;;;;;5100999;28;20023;-82
2021/10/24 09:25:47;;;;;;;14.02;7.13;;;;;;;;;;5092997;28;20442;-82
2021/10/24 09:28:17;;;;;;;10.32;7.43;;;;;;;;;;5103887;28;20387;-80
2021/10/24 09:30:43;;;;;;;11.13;7.45;;;;;;;;;;5093169;28;20149;-80
2021/10/24 09:33:10;;;;;;;10.68;7.30;;;;;;;;;;5102196;28;20110;-82
2021/10/24 09:35:49;;;;;;;10.00;7.20;;;;;;;;;;5096396;28;20507;-81
2021/10/24 09:38:16;;;;;;;12.65;7.03;;;;;;;;;;5100096;28;20391;-82
2021/10/24 09:40:46;;;;;;;8.52;5.90;;;;;;;;;;5104220;28;20030;-82
2021/10/24 09:43:17;;;;;;;10.65;7.05;;;;;;;;;;5095671;28;20102;-80
2021/10/24 09:45:45;;;;;;;12.43;6.88;;;;;;;;;;5102044;28;20149;-80
2021/10/24 09:48:16;;;;;;;10.40;6.40;;;;;;;;;;5098260;28;20115;-82
2021/10/24 09:50:50;;;;;;;10.40;6.60;;;;;;;;;;5093904;28;20116;-82
2021/10/24 09:53:17;;;;;;;9.98;6.60;;;;;;;;;;5098805;28;20111;-82
2021/10/24 09:55:46;;;;;;;9.32;6.63;;;;;;;;;;5106677;28;20106;-82
2021/10/24 09:58:12;;;;;;;11.38;6.28;;;;;;;;;;5092870;28;20020;-82
2021/10/24 10:00:39;;;;;;;12.23;7.13;;;;;;;;;;5078377;28;20039;-80
2021/10/24 10:03:08;;;;;;;11.02;6.90;;;;;;;;;;5096500;28;20044;-81
2021/10/24 10:05:37;;;;;;;12.15;7.00;;;;;;;;;;5099514;28;20092;-82
2021/10/24 10:08:05;;;;;;;10.93;7.32;;;;;;;;;;5094030;28;20016;-81
2021/10/24 10:10:32;;;;;;;9.90;6.55;;;;;;;;;;5099178;28;20119;-80
2021/10/24 10:13:02;;;;;;;9.15;6.32;;;;;;;;;;5098522;28;20432;-82
2021/10/24 10:15:53;;;;;;;12.23;7.10;;;;;;;;;;5098881;28;20031;-82
2021/10/24 10:18:19;;;;;;;10.55;6.55;;;;;;;;;;5084586;28;20024;-81
2021/10/24 10:20:53;;;;;;;8.93;6.43;;;;;;;;;;5086536;28;20044;-81
2021/10/24 10:23:36;;;;;;;11.63;6.35;;;;;;;;;;5098488;28;20077;-81
2021/10/24 10:26:39;;;;;;;11.18;6.68;;;;;;;;;;5099572;28;20053;-81
2021/10/24 10:29:07;;;;;;;9.38;6.40;;;;;;;;;;5112670;28;20044;-82
2021/10/24 10:31:35;;;;;;;15.43;7.03;;;;;;;;;;5093371;28;20028;-81
2021/10/24 10:34:05;;;;;;;10.90;6.72;;;;;;;;;;5093480;28;20414;-81
2021/10/24 10:36:47;;;;;;;12.80;7.22;;;;;;;;;;5089003;28;20390;-80
2021/10/24 10:39:31;;;;;;;10.25;6.80;;;;;;;;;;5088505;28;20088;-80
2021/10/24 10:41:58;;;;;;;12.02;7.30;;;;;;;;;;5097116;28;20506;-80
2021/10/24 10:44:23;;;;;;;9.57;7.20;;;;;;;;;;5098641;28;20166;-82
2021/10/24 10:46:48;;;;;;;11.40;6.88;;;;;;;;;;5078927;28;20052;-80
2021/10/24 10:49:27;;;;;;;12.88;7.03;;;;;;;;;;5067611;28;20536;-80
2021/10/24 10:52:39;;;;;;;11.10;6.82;;;;;;;;;;5092120;28;20020;-81
2021/10/24 10:55:04;;;;;;;11.45;6.45;;;;;;;;;;5083812;28;20113;-81
2021/10/24 10:57:30;;;;;;;9.75;6.50;;;;;;;;;;5069539;28;20069;-80
2021/10/24 10:59:55;;;;;;;9.60;6.85;;;;;;;;;;5080552;28;20036;-82
2021/10/24 11:02:29;;;;;;;8.50;6.13;;;;;;;;;;5075449;28;20024;-82
2021/10/24 11:05:00;;;;;;;12.43;7.28;;;;;;;;;;5086766;28;20017;-81
2021/10/24 11:07:42;;;;;;;10.65;6.65;;;;;;;;;;5097458;28;20107;-82
2021/10/24 11:10:13;;;;;;;9.48;6.50;;;;;;;;;;5094203;28;20027;-81
2021/10/24 11:12:41;;;;;;;9.60;6.00;;;;;;;;;;5101643;28;20036;-83
2021/10/24 11:15:06;;;;;;;10.70;6.55;;;;;;;;;;5081207;28;20470;-82
2021/10/24 11:17:34;;;;;;;12.27;6.25;;;;;;;;;;5108938;28;20033;-82
2021/10/24 11:20:14;;;;;;;9.90;6.50;;;;;;;;;;5103768;28;20027;-82
2021/10/24 11:22:44;;;;;;;9.00;6.38;;;;;;;;;;5093058;28;20386;-82
2021/10/24 11:25:09;;;;;;;9.45;7.22;;;;;;;;;;5077495;28;20031;-82
2021/10/24 11:27:36;;;;;;;10.40;6.40;;;;;;;;;;5082266;28;20039;-82
2021/10/24 11:30:05;;;;;;;11.23;7.28;;;;;;;;;;5085546;28;20039;-81
2021/10/24 11:32:36;;;;;;;8.38;6.43;;;;;;;;;;5103367;28;20027;-80
2021/10/24 11:35:14;;;;;;;11.05;6.05;;;;;;;;;;5080558;28;20120;-80
2021/10/24 11:37:48;;;;;;;10.63;6.57;;;;;;;;;;5098133;28;20084;-81
2021/10/24 11:40:27;;;;;;;9.85;6.35;;;;;;;;;;5098876;28;20055;-80
2021/10/24 11:43:08;;;;;;;8.93;6.63;;;;;;;;;;5104346;28;20085;-82
2021/10/24 11:45:37;;;;;;;10.52;5.82;;;;;;;;;;5103500;28;20023;-82
2021/10/24 11:48:09;;;;;;;11.10;6.63;;;;;;;;;;5104868;28;20031;-81
2021/10/24 11:50:45;;;;;;;10.18;6.50;;;;;;;;;;5099080;28;20028;-82
2021/10/24 11:53:36;;;;;;;9.93;6.80;;;;;;;;;;5098645;28;20028;-83
2021/10/24 11:57:02;;;;;;;12.38;6.20;;;;;;;;;;5082576;28;20052;-80
2021/10/24 11:59:50;;;;;;;10.18;6.82;;;;;;;;;;5100892;28;20054;-82
2021/10/24 12:02:09;;;;;;;9.85;6.30;;;;;;;;;;5097882;28;20032;-82
2021/10/24 12:04:35;;;;;;;7.70;5.63;;;;;;;;;;5083206;28;20020;-82
2021/10/24 12:07:03;;;;;;;7.85;5.80;;;;;;;;;;5061380;28;20028;-82
2021/10/24 12:09:43;;;;;;;11.90;6.38;;;;;;;;;;5085742;28;20432;-82
2021/10/24 12:12:19;;;;;;;9.50;5.95;;;;;;;;;;5100211;28;20051;-82
2021/10/24 12:14:56;;;;;;;9.98;6.30;;;;;;;;;;5097377;28;20371;-82
2021/10/24 12:17:25;;;;;;;11.65;5.68;;;;;;;;;;5087403;28;20089;-82
2021/10/24 12:20:25;;;;;;;9.13;6.63;;;;;;;;;;5098990;28;20027;-82
2021/10/24 12:22:52;;;;;;;8.80;5.95;;;;;;;;;;5088134;28;20028;-82
2021/10/24 12:25:44;;;;;;;8.73;6.10;;;;;;;;;;5102140;28;20034;-83
2021/10/24 12:28:15;;;;;;;7.90;5.57;;;;;;;;;;5099164;28;20024;-80
2021/10/24 12:30:46;;;;;;;9.00;5.85;;;;;;;;;;5101716;28;20024;-80
2021/10/24 12:33:16;;;;;;;8.93;5.88;;;;;;;;;;5094188;28;20051;-81
2021/10/24 12:35:46;;;;;;;7.82;5.60;;;;;;;;;;5089238;28;20024;-82
2021/10/24 12:38:12;;;;;;;8.13;5.18;;;;;;;;;;5103837;28;20020;-81
2021/10/24 12:40:37;;;;;;;8.15;5.40;;;;;;;;;;5102069;28;20034;-83
2021/10/24 12:43:14;;;;;;;10.50;6.53;;;;;;;;;;5064643;28;20034;-82
2021/10/24 12:45:43;;;;;;;8.95;5.75;;;;;;;;;;5097331;28;20471;-81
2021/10/24 12:48:10;;;;;;;9.45;5.93;;;;;;;;;;5085111;28;20411;-83
2021/10/24 12:50:37;;;;;;;9.43;5.97;;;;;;;;;;5103503;28;20031;-81
2021/10/24 12:53:05;;;;;;;9.45;5.82;;;;;;;;;;5077412;28;20498;-81
2021/10/24 12:55:32;;;;;;;7.57;4.80;;;;;;;;;;5097011;28;20111;-83
2021/10/24 12:57:59;;;;;;;8.23;5.50;;;;;;;;;;5080823;28;20498;-83
2021/10/24 13:00:26;;;;;;;8.20;5.55;;;;;;;;;;5080931;28;20141;-82
2021/10/24 13:02:51;;;;;;;9.68;5.68;;;;;;;;;;5071577;28;20035;-83
2021/10/24 13:05:17;;;;;;;10.77;5.50;;;;;;;;;;5081607;28;20032;-83
2021/10/24 13:07:42;;;;;;;10.02;5.47;;;;;;;;;;5084755;28;20478;-82
2021/10/24 13:10:08;;;;;;;10.02;5.35;;;;;;;;;;5080102;28;20024;-83
2021/10/24 13:12:33;;;;;;;9.95;5.88;;;;;;;;;;5088170;28;20053;-82
2021/10/24 13:14:59;;;;;;;8.18;5.57;;;;;;;;;;5059460;28;20031;-81
2021/10/24 13:17:25;;;;;;;9.57;5.80;;;;;;;;;;5071353;28;20090;-82
2021/10/24 13:19:51;;;;;;;9.40;6.10;;;;;;;;;;5078138;28;20028;-82
2021/10/24 13:25:04;;;;;;;12.70;5.78;;;;;;;;;;5089914;28;20043;-83
2021/10/24 13:27:29;;;;;;;8.60;5.60;;;;;;;;;;5093743;28;20034;-84
2021/10/24 13:29:55;;;;;;;7.20;5.15;;;;;;;;;;5074877;28;20546;-81
2021/10/24 13:32:20;;;;;;;9.90;5.35;;;;;;;;;;5063693;28;20506;-82
2021/10/24 13:34:46;;;;;;;9.27;5.30;;;;;;;;;;5087727;28;20027;-83
2021/10/24 13:37:11;;;;;;;9.20;5.10;;;;;;;;;;5062534;28;20479;-82
2021/10/24 13:39:37;;;;;;;8.02;5.20;;;;;;;;;;5095202;28;20047;-83
2021/10/24 13:42:03;;;;;;;7.93;5.13;;;;;;;;;;5100712;28;20022;-83
2021/10/24 13:44:28;;;;;;;10.07;5.25;;;;;;;;;;5097096;28;20035;-82
2021/10/24 13:46:54;;;;;;;7.63;5.28;;;;;;;;;;5063685;28;20491;-82
2021/10/24 13:49:22;;;;;;;7.63;5.10;;;;;;;;;;5075673;28;20035;-83
2021/10/24 13:51:50;;;;;;;8.13;4.82;;;;;;;;;;5091109;28;20395;-82
2021/10/24 13:54:18;;;;;;;10.35;5.45;;;;;;;;;;5062730;28;20556;-81
2021/10/24 13:56:46;;;;;;;6.72;4.78;;;;;;;;;;5058827;28;20051;-83
2021/10/24 13:59:19;;;;;;;7.32;4.88;;;;;;;;;;5051635;28;20565;-80
2021/10/24 14:01:47;;;;;;;7.53;4.75;;;;;;;;;;5056015;28;20084;-83
2021/10/24 14:04:13;;;;;;;8.15;5.05;;;;;;;;;;5056713;28;20039;-83
2021/10/24 14:06:41;;;;;;;9.73;4.70;;;;;;;;;;5077975;28;20044;-80
2021/10/24 14:09:07;;;;;;;8.68;4.82;;;;;;;;;;5071738;28;20094;-80
2021/10/24 14:11:33;;;;;;;10.07;5.35;;;;;;;;;;5053945;28;20051;-81
2021/10/24 14:13:58;;;;;;;11.07;5.22;;;;;;;;;;5078749;28;20719;-82
2021/10/24 14:16:25;;;;;;;8.65;5.40;;;;;;;;;;5060760;28;20040;-81
2021/10/24 14:18:51;;;;;;;9.23;5.20;;;;;;;;;;5069956;28;20610;-83
2021/10/24 14:21:19;;;;;;;10.25;5.78;;;;;;;;;;5091310;28;20115;-82
2021/10/24 14:23:44;;;;;;;9.43;6.18;;;;;;;;;;5080682;28;20030;-81
2021/10/24 14:26:11;;;;;;;9.07;5.47;;;;;;;;;;5062035;28;20131;-83
2021/10/24 14:28:40;;;;;;;11.13;5.95;;;;;;;;;;5082515;28;20039;-80
2021/10/24 14:31:09;;;;;;;9.82;6.35;;;;;;;;;;5064994;28;20040;-80
2021/10/24 14:33:35;;;;;;;8.82;5.38;;;;;;;;;;5080022;28;20046;-83
2021/10/24 14:36:04;;;;;;;10.65;6.03;;;;;;;;;;5067302;28;20036;-83
2021/10/24 14:38:30;;;;;;;8.65;5.30;;;;;;;;;;5059863;28;20028;-81
2021/10/24 14:40:59;;;;;;;10.18;5.88;;;;;;;;;;5080144;28;20413;-81
2021/10/24 14:43:30;;;;;;;13.05;5.63;;;;;;;;;;5077223;28;20039;-83